Time;durP1;ratioP1;P1;durP2;ratioP2;P2;SDS_P1;SDS_P2;PMS_P1;PMS_P2;Temp;Humidity;BMP_temperature;BMP_pressure;BME280_temperature;BME280_humidity;BME280_pressure;Samples;Min_cycle;Max_cycle;Signal;HPM_P1;HPM_P2
2023/09/22 00:00:54;;;;;;;1.42;0.38;;;11.80;99.90;;;;;;4855943;29;20128;-80
2023/09/22 00:03:20;;;;;;;3.28;0.47;;;11.80;99.90;;;;;;4857949;29;20037;-80
2023/09/22 00:05:46;;;;;;;2.38;0.50;;;11.70;99.90;;;;;;4861631;29;20151;-79
2023/09/22 00:08:12;;;;;;;2.53;0.60;;;11.70;99.90;;;;;;4866311;29;20045;-79
2023/09/22 00:10:38;;;;;;;1.83;0.20;;;11.70;99.90;;;;;;4865828;29;20439;-80
2023/09/22 00:13:05;;;;;;;3.85;0.50;;;11.70;99.90;;;;;;4862575;29;20037;-80
2023/09/22 00:15:30;;;;;;;2.75;0.40;;;11.70;99.90;;;;;;4866699;29;20135;-79
2023/09/22 00:17:56;;;;;;;2.25;0.40;;;11.70;99.90;;;;;;4862092;29;20428;-80
2023/09/22 00:20:22;;;;;;;1.35;0.30;;;11.70;99.90;;;;;;4855083;29;20049;-80
2023/09/22 00:22:48;;;;;;;2.85;1.08;;;11.70;99.90;;;;;;4863206;29;20041;-80
2023/09/22 00:25:15;;;;;;;2.17;0.50;;;11.60;99.90;;;;;;4864088;29;20137;-80
2023/09/22 00:27:41;;;;;;;0.40;0.30;;;11.60;99.90;;;;;;4862674;29;20450;-79
2023/09/22 00:30:09;;;;;;;1.15;0.30;;;11.60;99.90;;;;;;4864060;29;20195;-80
2023/09/22 00:32:35;;;;;;;1.67;0.40;;;11.70;99.90;;;;;;4864007;29;20068;-79
2023/09/22 00:35:01;;;;;;;2.35;0.50;;;11.80;99.90;;;;;;4867348;29;20098;-79
2023/09/22 00:37:28;;;;;;;0.35;0.30;;;11.80;99.90;;;;;;4867039;29;20037;-79
2023/09/22 00:39:54;;;;;;;0.95;0.50;;;11.80;99.90;;;;;;4867605;29;20060;-79
2023/09/22 00:42:19;;;;;;;1.58;0.30;;;11.80;99.90;;;;;;4861218;29;20563;-78
2023/09/22 00:44:45;;;;;;;0.57;0.38;;;11.80;99.90;;;;;;4858946;29;20029;-79
2023/09/22 00:47:14;;;;;;;2.53;0.50;;;11.80;99.90;;;;;;4867000;29;20242;-78
2023/09/22 00:49:42;;;;;;;0.90;0.40;;;11.80;99.90;;;;;;4867551;29;20459;-78
2023/09/22 00:52:09;;;;;;;1.83;0.60;;;11.80;99.90;;;;;;4861688;29;20066;-79
2023/09/22 00:54:35;;;;;;;2.72;0.50;;;11.80;99.90;;;;;;4862451;29;20044;-78
2023/09/22 00:57:04;;;;;;;1.23;0.65;;;11.80;99.90;;;;;;4868719;29;20461;-78
2023/09/22 00:59:30;;;;;;;0.93;0.55;;;11.90;99.90;;;;;;4868650;29;20041;-78
2023/09/22 01:01:56;;;;;;;3.75;0.60;;;11.90;99.90;;;;;;4865153;29;20033;-78
2023/09/22 01:04:22;;;;;;;1.77;0.52;;;11.90;99.90;;;;;;4865525;29;20077;-78
2023/09/22 01:06:47;;;;;;;2.30;0.70;;;11.80;99.90;;;;;;4852266;29;20148;-79
2023/09/22 01:09:16;;;;;;;2.28;0.65;;;11.80;99.90;;;;;;4853894;29;20049;-80
2023/09/22 01:11:41;;;;;;;2.17;0.57;;;11.80;99.90;;;;;;4850096;29;20307;-79
2023/09/22 01:14:07;;;;;;;2.88;0.70;;;11.80;99.90;;;;;;4864503;29;21259;-79
2023/09/22 01:16:33;;;;;;;1.00;0.70;;;11.80;99.90;;;;;;4868301;29;20033;-79
2023/09/22 01:18:59;;;;;;;2.95;0.60;;;11.80;99.90;;;;;;4861734;29;20056;-79
2023/09/22 01:21:34;;;;;;;2.28;0.57;;;11.80;99.90;;;;;;4860459;29;20088;-80
2023/09/22 01:24:00;;;;;;;3.05;0.55;;;11.80;99.90;;;;;;4863679;29;20037;-79
2023/09/22 01:26:27;;;;;;;2.63;0.60;;;11.70;99.90;;;;;;4859607;29;20044;-79
2023/09/22 01:28:52;;;;;;;1.60;0.60;;;11.70;99.90;;;;;;4525641;29;10000379;-79
2023/09/22 01:31:18;;;;;;;1.90;0.50;;;11.60;99.90;;;;;;4878072;29;20121;-80
2023/09/22 01:33:45;;;;;;;1.05;0.50;;;11.70;99.90;;;;;;4861507;29;20037;-80
2023/09/22 01:36:12;;;;;;;2.67;0.70;;;11.60;99.90;;;;;;4851492;29;20065;-79
2023/09/22 01:38:38;;;;;;;1.08;0.45;;;11.60;99.90;;;;;;4868127;29;20380;-80
2023/09/22 01:41:03;;;;;;;2.38;0.70;;;11.50;99.90;;;;;;4867825;29;20097;-80
2023/09/22 01:43:29;;;;;;;4.70;0.70;;;11.50;99.90;;;;;;4859240;29;20036;-79
2023/09/22 01:45:54;;;;;;;2.17;0.50;;;11.40;99.90;;;;;;4868952;29;20045;-79
2023/09/22 01:48:20;;;;;;;0.85;0.60;;;11.30;99.90;;;;;;4866714;29;20040;-80
2023/09/22 01:50:46;;;;;;;1.85;0.50;;;11.20;99.90;;;;;;4863560;29;20425;-80
2023/09/22 01:53:11;;;;;;;0.40;0.40;;;11.20;99.90;;;;;;4868732;29;20037;-79
2023/09/22 01:55:38;;;;;;;2.28;0.85;;;11.10;99.90;;;;;;4864488;29;20062;-80
2023/09/22 01:58:04;;;;;;;0.70;0.63;;;11.00;99.90;;;;;;4868399;29;20451;-80
2023/09/22 02:00:31;;;;;;;1.45;0.52;;;10.90;99.90;;;;;;4862484;29;20499;-80
2023/09/22 02:02:57;;;;;;;1.25;0.47;;;10.90;99.90;;;;;;4866521;29;20032;-80
2023/09/22 02:05:23;;;;;;;2.20;0.60;;;10.80;99.90;;;;;;4866392;29;20096;-80
2023/09/22 02:07:49;;;;;;;2.60;0.50;;;10.70;99.90;;;;;;4862557;29;20145;-80
2023/09/22 02:10:15;;;;;;;2.88;0.60;;;10.70;99.90;;;;;;4879259;29;20564;-80
2023/09/22 02:12:44;;;;;;;1.40;0.68;;;10.60;99.90;;;;;;4867184;29;20501;-80
2023/09/22 02:15:10;;;;;;;1.30;0.60;;;10.60;99.90;;;;;;4866919;29;20049;-80
2023/09/22 02:17:43;;;;;;;1.70;0.60;;;10.60;99.90;;;;;;4865747;29;20040;-80
2023/09/22 02:20:22;;;;;;;3.58;0.57;;;10.60;99.90;;;;;;4863733;29;20047;-80
2023/09/22 02:22:50;;;;;;;1.52;0.47;;;10.50;99.90;;;;;;4866919;29;20037;-80
2023/09/22 02:25:19;;;;;;;1.48;0.50;;;10.50;99.90;;;;;;4869061;29;20081;-80
2023/09/22 02:27:47;;;;;;;3.80;0.65;;;10.50;99.90;;;;;;4851608;29;20030;-79
2023/09/22 02:30:14;;;;;;;1.70;0.60;;;10.40;99.90;;;;;;4853932;29;20888;-80
2023/09/22 02:32:43;;;;;;;0.93;0.47;;;10.40;99.90;;;;;;4865235;29;20040;-80
2023/09/22 02:35:08;;;;;;;1.88;0.60;;;10.40;99.90;;;;;;4863435;29;20041;-80
2023/09/22 02:37:34;;;;;;;1.73;0.60;;;10.40;99.90;;;;;;4868591;29;20059;-80
2023/09/22 02:40:00;;;;;;;1.52;0.50;;;10.40;99.90;;;;;;4867476;29;20193;-80
2023/09/22 02:42:26;;;;;;;2.47;0.50;;;10.40;99.90;;;;;;4866652;29;20116;-80
2023/09/22 02:44:53;;;;;;;0.50;0.40;;;10.40;99.90;;;;;;4868679;29;20025;-79
2023/09/22 02:47:19;;;;;;;1.02;0.50;;;10.30;99.90;;;;;;4866088;29;20053;-80
2023/09/22 02:49:45;;;;;;;3.38;0.50;;;10.40;99.90;;;;;;4863628;29;20052;-80
2023/09/22 02:52:10;;;;;;;0.77;0.50;;;10.30;99.90;;;;;;4852280;29;20148;-80
2023/09/22 02:54:36;;;;;;;2.00;0.70;;;10.30;99.90;;;;;;4861134;29;20025;-80
2023/09/22 02:57:03;;;;;;;1.13;0.60;;;10.20;99.90;;;;;;4864295;29;20282;-80
2023/09/22 02:59:29;;;;;;;1.70;0.47;;;10.20;99.90;;;;;;4850233;29;20100;-80
2023/09/22 03:01:55;;;;;;;0.40;0.40;;;10.20;99.90;;;;;;4864114;29;20041;-80
2023/09/22 03:04:21;;;;;;;0.32;0.32;;;10.10;99.90;;;;;;4860000;29;21176;-80
2023/09/22 03:06:47;;;;;;;0.30;0.30;;;10.10;99.90;;;;;;4863970;29;20357;-80
2023/09/22 03:09:14;;;;;;;1.27;0.20;;;10.00;99.90;;;;;;4865212;29;20028;-78
2023/09/22 03:11:40;;;;;;;0.43;0.30;;;9.90;99.90;;;;;;4862450;29;20029;-80
2023/09/22 03:14:06;;;;;;;0.40;0.40;;;9.90;99.90;;;;;;4866638;29;20088;-80
2023/09/22 03:16:31;;;;;;;1.05;0.40;;;9.90;99.90;;;;;;4862893;29;20037;-78
2023/09/22 03:18:57;;;;;;;0.40;0.40;;;9.80;99.90;;;;;;4866715;29;20037;-79
2023/09/22 03:21:26;;;;;;;0.20;0.20;;;9.80;99.90;;;;;;4866515;29;20052;-80
2023/09/22 03:23:53;;;;;;;1.20;0.10;;;9.70;99.90;;;;;;4860343;29;20037;-79
2023/09/22 03:26:19;;;;;;;0.10;0.10;;;9.70;99.90;;;;;;4865801;29;20048;-80
2023/09/22 03:28:45;;;;;;;0.10;0.10;;;9.60;99.90;;;;;;4865762;29;20045;-80
2023/09/22 03:31:11;;;;;;;0.10;0.10;;;9.60;99.90;;;;;;4865397;29;20093;-80
2023/09/22 03:33:40;;;;;;;0.10;0.10;;;9.50;99.90;;;;;;4867498;29;20503;-80
2023/09/22 03:36:10;;;;;;;0.10;0.10;;;9.50;99.90;;;;;;4856678;29;20492;-80
2023/09/22 03:38:36;;;;;;;0.10;0.10;;;9.50;99.90;;;;;;4866309;29;20112;-80
2023/09/22 03:41:03;;;;;;;0.20;0.20;;;9.50;99.90;;;;;;4866069;29;20086;-80
2023/09/22 03:43:29;;;;;;;0.20;0.20;;;9.40;99.90;;;;;;4863196;29;20029;-80
2023/09/22 03:45:55;;;;;;;0.20;0.20;;;9.40;99.90;;;;;;4853281;29;20033;-80
2023/09/22 03:48:22;;;;;;;0.73;0.17;;;9.40;99.90;;;;;;4864933;29;20539;-80
2023/09/22 03:50:48;;;;;;;0.10;0.10;;;9.40;99.90;;;;;;4867813;29;20169;-80
2023/09/22 03:53:14;;;;;;;0.20;0.20;;;9.40;99.90;;;;;;4864605;29;20029;-80
2023/09/22 03:55:40;;;;;;;0.22;0.22;;;9.30;99.90;;;;;;4859122;29;20375;-79
2023/09/22 03:58:06;;;;;;;0.30;0.30;;;9.30;99.90;;;;;;4852236;29;20030;-80
2023/09/22 04:00:32;;;;;;;2.35;0.40;;;9.30;99.90;;;;;;4859705;29;20152;-80
2023/09/22 04:03:01;;;;;;;0.30;0.30;;;9.30;99.90;;;;;;4868019;29;20570;-80
2023/09/22 04:05:27;;;;;;;2.95;0.40;;;9.30;99.90;;;;;;4869786;29;20036;-80
2023/09/22 04:07:57;;;;;;;0.55;0.50;;;9.30;99.90;;;;;;4870195;29;20029;-80
2023/09/22 04:10:23;;;;;;;0.60;0.60;;;9.30;99.90;;;;;;4871382;29;20032;-80
2023/09/22 04:12:52;;;;;;;2.05;0.50;;;9.40;99.90;;;;;;4866446;29;20067;-80
2023/09/22 04:15:18;;;;;;;0.40;0.40;;;9.40;99.90;;;;;;4861900;29;20033;-79
2023/09/22 04:17:46;;;;;;;0.80;0.70;;;9.40;99.90;;;;;;4866478;29;20531;-80
2023/09/22 04:20:12;;;;;;;0.90;0.73;;;9.40;99.90;;;;;;4863548;29;20117;-80
2023/09/22 04:22:39;;;;;;;1.40;1.10;;;9.40;99.90;;;;;;4865760;29;20040;-81
2023/09/22 04:25:13;;;;;;;1.63;1.00;;;9.40;99.90;;;;;;4871592;29;20158;-80
2023/09/22 04:27:43;;;;;;;0.88;0.68;;;9.40;99.90;;;;;;4868188;29;20029;-80
2023/09/22 04:30:15;;;;;;;1.83;0.47;;;9.40;99.90;;;;;;4866295;29;20048;-80
2023/09/22 04:32:44;;;;;;;0.70;0.40;;;9.40;99.90;;;;;;4864972;29;20037;-80
2023/09/22 04:35:10;;;;;;;0.30;0.30;;;9.40;99.90;;;;;;4852885;29;20034;-80
2023/09/22 04:37:36;;;;;;;0.55;0.40;;;9.40;99.90;;;;;;4860423;29;20089;-80
2023/09/22 04:40:23;;;;;;;0.60;0.45;;;9.40;99.90;;;;;;4867136;29;20130;-79
2023/09/22 04:42:51;;;;;;;0.30;0.30;;;9.40;99.90;;;;;;4867826;29;20033;-80
2023/09/22 04:45:18;;;;;;;0.55;0.35;;;9.40;99.90;;;;;;4866840;29;20040;-80
2023/09/22 04:47:46;;;;;;;1.30;0.80;;;9.40;99.90;;;;;;4870257;29;20394;-80
2023/09/22 04:50:15;;;;;;;1.10;0.80;;;9.50;99.90;;;;;;4867608;29;20041;-80
2023/09/22 04:52:41;;;;;;;1.92;0.73;;;9.40;99.90;;;;;;4860530;29;20129;-80
2023/09/22 04:55:07;;;;;;;1.85;1.08;;;9.40;99.90;;;;;;4867023;29;20034;-80
2023/09/22 04:57:32;;;;;;;0.88;0.65;;;9.40;99.90;;;;;;4865857;29;20096;-80
2023/09/22 04:59:58;;;;;;;0.90;0.70;;;9.40;99.90;;;;;;4870948;29;20423;-80
2023/09/22 05:02:24;;;;;;;0.95;0.73;;;9.40;99.90;;;;;;4869550;29;20052;-79
2023/09/22 05:04:49;;;;;;;0.65;0.52;;;9.40;99.90;;;;;;4871185;29;20103;-80
2023/09/22 05:07:16;;;;;;;1.80;0.60;;;9.40;99.90;;;;;;4867416;29;20055;-80
2023/09/22 05:09:43;;;;;;;0.30;0.30;;;9.40;99.90;;;;;;4865154;29;20093;-80
2023/09/22 05:12:09;;;;;;;2.78;0.43;;;9.50;99.90;;;;;;4863583;29;20066;-80
2023/09/22 05:14:35;;;;;;;0.40;0.40;;;9.40;99.90;;;;;;4857517;29;20037;-79
2023/09/22 05:17:00;;;;;;;0.45;0.40;;;9.40;99.90;;;;;;4850853;29;20038;-80
2023/09/22 05:19:26;;;;;;;0.63;0.40;;;9.40;99.90;;;;;;4868563;29;20081;-80
2023/09/22 05:21:52;;;;;;;0.43;0.43;;;9.40;99.90;;;;;;4868318;29;20065;-80
2023/09/22 05:24:17;;;;;;;0.70;0.40;;;9.40;99.90;;;;;;4860577;29;20100;-80
2023/09/22 05:26:43;;;;;;;0.40;0.40;;;9.40;99.90;;;;;;4865631;29;20036;-80
2023/09/22 05:29:08;;;;;;;2.25;0.50;;;9.40;99.90;;;;;;4863715;29;20049;-78
2023/09/22 05:31:36;;;;;;;0.60;0.50;;;9.40;99.90;;;;;;4863621;29;20650;-80
2023/09/22 05:34:02;;;;;;;0.47;0.40;;;9.40;99.90;;;;;;4851311;29;20068;-80
2023/09/22 05:36:29;;;;;;;2.40;0.43;;;9.30;99.90;;;;;;4869947;29;20036;-80
2023/09/22 05:38:56;;;;;;;0.52;0.43;;;9.30;99.90;;;;;;4864636;29;20425;-80
2023/09/22 05:41:22;;;;;;;0.88;0.50;;;9.30;99.90;;;;;;4866087;29;20044;-79
2023/09/22 05:43:47;;;;;;;3.55;0.60;;;9.30;99.90;;;;;;4868497;29;20555;-79
2023/09/22 05:46:13;;;;;;;0.60;0.60;;;9.30;99.90;;;;;;4869092;29;20532;-80
2023/09/22 05:48:38;;;;;;;1.30;0.65;;;9.30;99.90;;;;;;4866605;29;20036;-79
2023/09/22 05:51:05;;;;;;;2.50;0.88;;;9.40;99.90;;;;;;4867710;29;20352;-80
2023/09/22 05:53:30;;;;;;;0.98;0.70;;;9.40;99.90;;;;;;4869683;29;20040;-80
2023/09/22 05:56:06;;;;;;;1.42;0.85;;;9.40;99.90;;;;;;4865879;29;20029;-80
2023/09/22 05:58:39;;;;;;;1.35;1.10;;;9.40;99.90;;;;;;4867173;29;20136;-80
2023/09/22 06:01:09;;;;;;;1.88;0.90;;;9.40;99.90;;;;;;4867515;29;20503;-89
2023/09/22 06:03:37;;;;;;;1.52;1.10;;;9.50;99.90;;;;;;4868032;29;20230;-88
2023/09/22 06:06:08;;;;;;;1.80;1.30;;;9.50;99.90;;;;;;4870339;29;20037;-84
2023/09/22 06:08:36;;;;;;;;;;;9.60;99.90;;;;;;4873001;29;20037;-84
2023/09/22 06:11:02;;;;;;;11.70;5.97;;;9.60;99.90;;;;;;4869789;29;19916;-88
2023/09/22 06:13:27;;;;;;;7.65;4.68;;;9.70;99.90;;;;;;4872419;29;20551;-83
2023/09/22 06:15:53;;;;;;;5.85;3.78;;;9.80;99.90;;;;;;4870920;29;20029;-88
2023/09/22 06:18:19;;;;;;;9.45;4.07;;;9.80;99.90;;;;;;4868418;29;20060;-88
2023/09/22 06:20:45;;;;;;;5.65;3.85;;;9.80;99.90;;;;;;4865095;29;20114;-91
2023/09/22 06:23:10;;;;;;;6.80;3.13;;;9.90;99.90;;;;;;4855135;29;20085;-87
2023/09/22 06:25:36;;;;;;;4.30;2.78;;;10.00;99.90;;;;;;4866533;29;20040;-89
2023/09/22 06:28:03;;;;;;;6.47;3.00;;;10.10;99.90;;;;;;4858794;29;20029;-83
2023/09/22 06:30:30;;;;;;;3.80;2.28;;;10.10;99.90;;;;;;4868659;29;20042;-87
2023/09/22 06:32:55;;;;;;;5.13;2.00;;;10.20;99.90;;;;;;4857870;29;20039;-83
2023/09/22 06:35:21;;;;;;;2.92;2.53;;;10.30;99.90;;;;;;4859416;29;20175;-81
2023/09/22 06:37:46;;;;;;;3.13;2.92;;;10.40;99.90;;;;;;4857557;29;20089;-81
2023/09/22 06:40:12;;;;;;;1.83;1.35;;;10.40;99.90;;;;;;4856967;29;20407;-84
2023/09/22 06:42:44;;;;;;;1.88;1.13;;;10.50;99.90;;;;;;4861189;29;20037;-85
2023/09/22 06:45:12;;;;;;;3.72;2.88;;;10.50;99.90;;;;;;4856539;29;20065;-84
2023/09/22 06:47:40;;;;;;;2.38;1.85;;;10.60;99.90;;;;;;4856556;29;20064;-84
2023/09/22 06:50:09;;;;;;;2.38;1.63;;;10.60;99.90;;;;;;4869251;29;20348;-91
2023/09/22 06:52:40;;;;;;;1.55;1.30;;;10.60;99.90;;;;;;4861962;29;20041;-83
2023/09/22 06:55:09;;;;;;;1.90;1.42;;;10.70;99.90;;;;;;4861744;29;20040;-88
2023/09/22 06:57:40;;;;;;;2.17;1.50;;;10.80;99.90;;;;;;4864128;29;20486;-81
2023/09/22 07:00:16;;;;;;;47.63;31.23;;;10.80;99.90;;;;;;4857207;29;20036;-79
2023/09/22 07:02:48;;;;;;;5.65;3.40;;;10.90;99.90;;;;;;4858840;29;20120;-80
2023/09/22 07:05:19;;;;;;;2.95;2.28;;;11.00;99.90;;;;;;4860259;29;20025;-82
2023/09/22 07:07:45;;;;;;;3.05;2.53;;;11.00;99.90;;;;;;4856279;29;20041;-80
2023/09/22 07:10:11;;;;;;;3.00;2.40;;;11.20;99.90;;;;;;4862270;29;20041;-84
2023/09/22 07:12:38;;;;;;;2.97;2.05;;;11.30;99.90;;;;;;4862878;29;20113;-82
2023/09/22 07:15:05;;;;;;;2.65;2.00;;;11.50;99.90;;;;;;4864508;29;20159;-79
2023/09/22 07:17:33;;;;;;;5.82;4.32;;;11.60;99.90;;;;;;4863026;29;20025;-83
2023/09/22 07:20:00;;;;;;;21.73;11.73;;;11.80;99.90;;;;;;4861293;29;20427;-85
2023/09/22 07:22:29;;;;;;;6.90;3.10;;;11.90;99.90;;;;;;4864153;29;20060;-81
2023/09/22 07:24:55;;;;;;;3.05;2.53;;;12.00;99.90;;;;;;4861513;29;20025;-81
2023/09/22 07:27:21;;;;;;;4.78;3.25;;;12.20;99.90;;;;;;4860736;29;20423;-87
2023/09/22 07:29:50;;;;;;;3.88;2.55;;;12.30;99.90;;;;;;4861868;29;20045;-82
2023/09/22 07:32:16;;;;;;;4.35;2.53;;;12.40;99.90;;;;;;4869953;29;20040;-81
2023/09/22 07:34:42;;;;;;;4.55;2.83;;;12.60;99.90;;;;;;4870967;29;20131;-85
2023/09/22 07:37:11;;;;;;;3.75;2.50;;;12.70;99.90;;;;;;4868116;29;20525;-81
2023/09/22 07:39:39;;;;;;;3.67;2.72;;;12.90;99.90;;;;;;4871376;29;20459;-83
2023/09/22 07:42:06;;;;;;;5.45;2.92;;;13.10;99.90;;;;;;4860783;29;20048;-78
2023/09/22 07:44:31;;;;;;;4.15;2.75;;;13.20;99.90;;;;;;4863598;29;20458;-80
2023/09/22 07:47:00;;;;;;;4.97;2.60;;;13.40;99.90;;;;;;4864286;29;20092;-83
2023/09/22 07:49:26;;;;;;;5.18;3.35;;;13.50;99.90;;;;;;4861578;29;20148;-84
2023/09/22 07:51:52;;;;;;;21.83;15.50;;;13.70;99.90;;;;;;4856194;29;20045;-87
2023/09/22 07:54:20;;;;;;;7.85;4.70;;;13.80;99.90;;;;;;4856817;29;20060;-77
2023/09/22 07:56:46;;;;;;;4.20;3.30;;;14.00;99.90;;;;;;4860295;29;20108;-85
2023/09/22 07:59:16;;;;;;;4.00;3.05;;;14.20;99.90;;;;;;4862967;29;20144;-82
2023/09/22 08:01:42;;;;;;;4.78;2.85;;;14.50;99.90;;;;;;4860217;29;20041;-81
2023/09/22 08:04:12;;;;;;;4.63;2.85;;;14.80;99.90;;;;;;4861129;29;20124;-83
2023/09/22 08:06:38;;;;;;;3.55;2.80;;;15.10;99.90;;;;;;4862021;29;20121;-77
2023/09/22 08:09:04;;;;;;;3.78;2.83;;;15.50;99.90;;;;;;4855241;29;20642;-78
2023/09/22 08:11:33;;;;;;;3.28;2.70;;;15.90;99.90;;;;;;4861255;29;20107;-79
2023/09/22 08:14:00;;;;;;;4.13;2.67;;;16.50;99.90;;;;;;4861348;29;20060;-79
2023/09/22 08:16:26;;;;;;;3.95;2.42;;;16.80;99.90;;;;;;4855013;29;20177;-79
2023/09/22 08:18:53;;;;;;;3.78;2.50;;;17.10;99.90;;;;;;4860846;29;20158;-82
2023/09/22 08:21:21;;;;;;;3.88;2.45;;;17.20;99.90;;;;;;4871224;29;20088;-82
2023/09/22 08:23:47;;;;;;;4.88;2.78;;;16.90;99.90;;;;;;4859521;29;20040;-77
2023/09/22 08:26:17;;;;;;;3.75;2.88;;;16.70;99.90;;;;;;4860431;29;20127;-78
2023/09/22 08:28:44;;;;;;;4.35;3.45;;;16.30;99.90;;;;;;4858651;29;20625;-79
2023/09/22 08:31:11;;;;;;;5.25;3.60;;;16.00;99.90;;;;;;4855739;29;20033;-79
2023/09/22 08:33:36;;;;;;;4.63;3.17;;;16.00;99.90;;;;;;4858516;29;20044;-78
2023/09/22 08:36:03;;;;;;;8.48;3.58;;;15.90;99.90;;;;;;4186405;29;10000744;-77
2023/09/22 08:38:30;;;;;;;4.32;2.97;;;16.10;99.90;;;;;;4856142;29;20028;-79
2023/09/22 08:40:57;;;;;;;5.65;2.80;;;16.20;99.90;;;;;;4852507;29;20093;-78
2023/09/22 08:43:23;;;;;;;5.57;2.92;;;16.30;99.90;;;;;;4858479;29;20032;-78
2023/09/22 08:45:50;;;;;;;4.32;3.03;;;16.50;99.90;;;;;;4851895;29;20034;-78
2023/09/22 08:48:15;;;;;;;3.30;2.92;;;16.80;99.90;;;;;;4856571;29;20123;-80
2023/09/22 08:50:41;;;;;;;3.85;2.42;;;16.90;99.90;;;;;;4859250;29;20112;-79
2023/09/22 08:53:07;;;;;;;5.22;2.90;;;17.40;99.90;;;;;;4861020;29;20132;-79
2023/09/22 08:55:33;;;;;;;4.25;2.80;;;18.10;99.90;;;;;;4862229;29;20124;-78
2023/09/22 08:57:59;;;;;;;4.40;2.33;;;18.70;99.90;;;;;;4863169;29;20033;-79
2023/09/22 09:00:27;;;;;;;3.25;2.30;;;18.90;99.90;;;;;;4862044;29;20041;-78
2023/09/22 09:02:55;;;;;;;3.90;2.40;;;19.10;99.90;;;;;;4860154;29;20034;-79
2023/09/22 09:05:28;;;;;;;3.70;2.47;;;19.20;99.90;;;;;;4859938;29;20097;-78
2023/09/22 09:08:08;;;;;;;2.80;2.13;;;19.40;99.90;;;;;;4857264;29;20033;-77
2023/09/22 09:10:35;;;;;;;3.28;2.20;;;20.60;99.90;;;;;;4863044;29;20199;-77
2023/09/22 09:13:01;;;;;;;2.38;2.13;;;22.80;99.90;;;;;;4862344;29;20041;-77
2023/09/22 09:15:43;;;;;;;3.35;1.98;;;24.10;99.90;;;;;;4858334;29;20052;-76
2023/09/22 09:18:11;;;;;;;;;;;25.10;99.90;;;;;;4851059;29;20033;-76
2023/09/22 09:20:42;;;;;;;3.90;1.48;;;26.70;98.80;;;;;;4850529;29;20001;-77
2023/09/22 09:23:15;;;;;;;2.78;1.70;;;27.20;91.90;;;;;;4866275;29;20081;-79
2023/09/22 09:25:43;;;;;;;5.53;2.00;;;27.10;92.80;;;;;;4864694;29;20060;-77
2023/09/22 09:28:10;;;;;;;4.55;1.70;;;27.60;90.40;;;;;;4868519;29;20075;-78
2023/09/22 09:30:36;;;;;;;2.80;1.65;;;28.50;91.30;;;;;;4859582;29;20075;-81
2023/09/22 09:33:09;;;;;;;1.75;1.45;;;30.00;86.50;;;;;;4850444;29;20056;-80
2023/09/22 09:35:37;;;;;;;2.78;1.50;;;31.50;72.60;;;;;;4867516;29;20091;-78
2023/09/22 09:38:03;;;;;;;2.60;1.40;;;32.20;67.60;;;;;;4865635;29;20119;-79
2023/09/22 09:40:29;;;;;;;2.83;1.60;;;31.20;62.30;;;;;;4847940;29;20128;-77
2023/09/22 09:42:57;;;;;;;2.53;1.70;;;29.50;65.10;;;;;;4860529;29;20124;-78
2023/09/22 09:45:23;;;;;;;2.58;1.52;;;28.90;77.10;;;;;;4867314;29;20032;-77
2023/09/22 09:47:54;;;;;;;3.15;1.30;;;29.80;71.10;;;;;;4867145;29;20466;-80
2023/09/22 09:50:21;;;;;;;2.25;1.42;;;30.60;62.60;;;;;;4862195;29;20025;-78
2023/09/22 09:52:56;;;;;;;3.03;1.70;;;30.70;64.20;;;;;;4865219;29;20092;-78
2023/09/22 09:55:24;;;;;;;3.90;1.50;;;31.00;65.20;;;;;;4862164;29;20137;-78
2023/09/22 09:57:53;;;;;;;2.67;1.40;;;31.80;63.80;;;;;;4868538;29;20040;-78
2023/09/22 10:00:19;;;;;;;5.10;1.45;;;30.60;61.30;;;;;;4866234;29;20248;-78
2023/09/22 10:02:47;;;;;;;3.20;1.60;;;29.40;63.80;;;;;;4867123;29;20127;-78
2023/09/22 10:05:18;;;;;;;2.75;1.80;;;28.70;65.00;;;;;;4868489;29;20033;-78
2023/09/22 10:07:44;;;;;;;2.90;1.60;;;27.50;70.30;;;;;;4880731;29;20052;-78
2023/09/22 10:10:19;;;;;;;3.42;1.50;;;27.20;78.90;;;;;;4868205;29;20029;-78
2023/09/22 10:12:53;;;;;;;4.26;1.74;;;27.30;79.30;;;;;;4795841;29;10000686;-79
2023/09/22 10:15:50;;;;;;;4.03;1.63;;;29.50;78.10;;;;;;4865820;29;20233;-79
2023/09/22 10:18:17;;;;;;;2.13;1.30;;;30.80;66.40;;;;;;4867526;29;20057;-81
2023/09/22 10:20:47;;;;;;;1.60;1.20;;;32.00;63.30;;;;;;4868060;29;20143;-79
2023/09/22 10:23:27;;;;;;;2.80;1.47;;;32.90;60.60;;;;;;4866205;29;20135;-78
2023/09/22 10:26:05;;;;;;;2.70;1.10;;;33.20;59.00;;;;;;4858987;29;20279;-78
2023/09/22 10:28:30;;;;;;;2.00;0.95;;;33.80;53.20;;;;;;4855859;29;20514;-80
2023/09/22 10:30:59;;;;;;;2.80;1.20;;;33.40;57.10;;;;;;4858907;29;20116;-79
2023/09/22 10:33:25;;;;;;;4.63;1.30;;;32.70;56.80;;;;;;4855183;29;20028;-78
2023/09/22 10:35:51;;;;;;;4.18;1.30;;;32.30;59.00;;;;;;4859537;29;20609;-79
2023/09/22 10:38:20;;;;;;;2.70;1.25;;;32.30;58.60;;;;;;4864360;29;20045;-79
2023/09/22 10:41:01;;;;;;;1.33;0.60;;;32.20;58.40;;;;;;4865802;29;20501;-79
2023/09/22 10:43:32;;;;;;;2.33;1.08;;;31.90;58.10;;;;;;4861917;29;20364;-79
2023/09/22 10:45:59;;;;;;;2.97;1.00;;;31.80;60.50;;;;;;4865147;29;20037;-79
2023/09/22 10:48:32;;;;;;;4.07;1.10;;;32.00;59.00;;;;;;4866662;29;20088;-79
2023/09/22 10:50:57;;;;;;;2.65;1.02;;;32.30;60.50;;;;;;4864717;29;20044;-79
2023/09/22 10:53:23;;;;;;;2.75;0.90;;;31.00;55.00;;;;;;4859341;29;20025;-80
2023/09/22 10:55:49;;;;;;;1.67;0.90;;;30.20;61.40;;;;;;4861333;29;20266;-79
2023/09/22 10:58:21;;;;;;;2.83;0.68;;;29.40;65.60;;;;;;4867400;29;20510;-79
2023/09/22 11:00:58;;;;;;;3.38;0.85;;;29.00;67.70;;;;;;4863154;29;20652;-79
2023/09/22 11:03:24;;;;;;;3.35;0.90;;;28.70;64.80;;;;;;4862157;29;20029;-79
2023/09/22 11:05:58;;;;;;;1.35;0.73;;;28.40;67.70;;;;;;4868250;29;20117;-79
2023/09/22 11:08:24;;;;;;;2.58;0.82;;;28.40;69.70;;;;;;4863545;29;20067;-79
2023/09/22 11:10:54;;;;;;;2.78;0.70;;;28.40;70.30;;;;;;4853725;29;20472;-78
2023/09/22 11:13:23;;;;;;;1.35;0.38;;;28.40;70.30;;;;;;4866924;29;20036;-79
2023/09/22 11:16:01;;;;;;;1.20;0.40;;;28.70;69.10;;;;;;4853861;29;20044;-79
2023/09/22 11:18:31;;;;;;;0.73;0.22;;;28.50;70.60;;;;;;4864371;29;20047;-79
2023/09/22 11:21:11;;;;;;;2.40;0.60;;;28.10;71.70;;;;;;4862704;29;20140;-79
2023/09/22 11:23:41;;;;;;;2.13;0.38;;;27.70;73.20;;;;;;4856776;29;20065;-79
2023/09/22 11:26:09;;;;;;;1.15;0.47;;;27.10;69.20;;;;;;4518689;29;9999870;-78
2023/09/22 11:28:39;;;;;;;1.00;0.32;;;26.20;70.60;;;;;;4862509;29;20052;-78
2023/09/22 11:31:17;;;;;;;2.60;0.45;;;25.70;78.50;;;;;;4862201;29;20120;-79
2023/09/22 11:33:44;;;;;;;1.35;0.60;;;25.30;72.60;;;;;;4857890;29;20265;-79
2023/09/22 11:36:11;;;;;;;1.00;0.38;;;25.00;82.30;;;;;;4863394;29;20039;-77
2023/09/22 11:38:43;;;;;;;2.10;0.60;;;25.00;82.70;;;;;;4859682;29;20044;-78
2023/09/22 11:41:17;;;;;;;2.20;0.50;;;25.00;90.10;;;;;;4862213;29;20044;-77
2023/09/22 11:43:48;;;;;;;1.65;0.47;;;24.90;82.80;;;;;;4862534;29;20021;-77
2023/09/22 11:46:15;;;;;;;1.98;0.70;;;24.80;84.70;;;;;;4861211;29;20352;-77
2023/09/22 11:48:59;;;;;;;1.52;0.73;;;24.70;72.50;;;;;;4864279;29;20561;-78
2023/09/22 11:51:45;;;;;;;0.90;0.50;;;24.80;85.60;;;;;;4863702;29;20032;-78
2023/09/22 11:54:12;;;;;;;2.42;0.70;;;24.40;81.80;;;;;;4853779;29;20085;-78
2023/09/22 11:56:39;;;;;;;2.22;0.50;;;24.50;88.30;;;;;;4860445;29;20451;-83
2023/09/22 11:59:08;;;;;;;2.08;0.70;;;24.30;82.70;;;;;;4864251;29;20045;-79
2023/09/22 12:01:35;;;;;;;2.28;0.63;;;24.00;79.10;;;;;;4865883;29;20056;-78
2023/09/22 12:04:01;;;;;;;1.48;0.57;;;24.30;75.70;;;;;;4867866;29;20444;-75
2023/09/22 12:06:27;;;;;;;2.70;0.70;;;24.60;75.80;;;;;;4863735;29;20567;-77
2023/09/22 12:08:52;;;;;;;1.92;0.40;;;25.00;80.00;;;;;;4857845;29;20029;-78
2023/09/22 12:11:18;;;;;;;3.13;0.85;;;25.00;72.40;;;;;;4862637;29;20495;-77
2023/09/22 12:13:46;;;;;;;3.15;0.80;;;24.50;77.40;;;;;;4867121;29;20109;-78
2023/09/22 12:16:13;;;;;;;2.83;1.13;;;23.70;73.10;;;;;;4864613;29;20448;-77
2023/09/22 12:18:38;;;;;;;2.55;0.57;;;22.80;74.60;;;;;;4527203;29;10000528;-79
2023/09/22 12:21:04;;;;;;;2.17;0.60;;;22.00;82.40;;;;;;4864990;29;20048;-83
2023/09/22 12:23:29;;;;;;;2.60;0.70;;;21.90;93.30;;;;;;4867643;29;20356;-86
2023/09/22 12:25:55;;;;;;;1.77;0.73;;;22.20;94.90;;;;;;4868871;29;20061;-77
2023/09/22 12:28:20;;;;;;;3.42;0.70;;;22.70;95.80;;;;;;4830673;29;1135256;-79
2023/09/22 12:30:46;;;;;;;1.48;0.63;;;23.20;87.40;;;;;;4869433;29;20033;-77
2023/09/22 12:33:12;;;;;;;2.97;0.50;;;23.40;91.50;;;;;;4869107;29;20496;-76
2023/09/22 12:35:38;;;;;;;4.03;0.70;;;23.90;92.30;;;;;;4867834;29;20028;-77
2023/09/22 12:38:06;;;;;;;1.50;0.40;;;24.50;93.40;;;;;;4869134;29;20029;-78
2023/09/22 12:40:32;;;;;;;0.55;0.40;;;24.80;84.40;;;;;;4867858;29;20120;-78
2023/09/22 12:42:58;;;;;;;2.03;0.60;;;25.40;80.00;;;;;;4870639;29;20124;-78
2023/09/22 12:45:23;;;;;;;3.08;0.73;;;25.30;77.30;;;;;;4856072;29;20033;-77
2023/09/22 12:47:49;;;;;;;0.80;0.52;;;24.60;70.40;;;;;;4868658;29;20197;-77
2023/09/22 12:50:15;;;;;;;1.20;0.50;;;24.40;83.20;;;;;;4867469;29;20040;-81